createdAt,value
2023-08-01T00:00:40.700Z,0.93
2023-08-01T00:03:08.504Z,1.10
2023-08-01T00:05:36.289Z,1.30
2023-08-01T00:08:04.521Z,0.90
2023-08-01T00:10:32.232Z,0.68
2023-08-01T00:12:59.976Z,0.80
2023-08-01T00:15:29.101Z,0.70
2023-08-01T00:17:56.835Z,0.90
2023-08-01T00:20:24.814Z,0.75
2023-08-01T00:22:52.593Z,1.75
2023-08-01T00:25:20.588Z,0.93
2023-08-01T00:27:48.405Z,0.80
2023-08-01T00:30:16.154Z,0.80
2023-08-01T00:32:45.245Z,0.90
2023-08-01T00:35:12.991Z,0.60
2023-08-01T00:37:40.787Z,0.70
2023-08-01T00:40:10.091Z,0.98
2023-08-01T00:42:38.473Z,0.85
2023-08-01T00:45:07.470Z,0.98
2023-08-01T00:47:35.371Z,0.47
2023-08-01T00:50:04.913Z,0.88
2023-08-01T00:52:32.692Z,0.80
2023-08-01T00:55:00.399Z,0.70
2023-08-01T00:57:28.112Z,0.80
2023-08-01T00:59:55.865Z,1.00
2023-08-01T01:02:23.731Z,0.70
2023-08-01T01:04:51.531Z,0.50
2023-08-01T01:07:20.607Z,0.80
2023-08-01T01:09:48.642Z,0.77
2023-08-01T01:12:16.497Z,0.80
2023-08-01T01:14:44.328Z,1.00
2023-08-01T01:17:12.060Z,1.00
2023-08-01T01:19:40.147Z,0.70
2023-08-01T01:22:10.189Z,0.73
2023-08-01T01:24:38.070Z,1.10
2023-08-01T01:27:06.377Z,0.68
2023-08-01T01:29:34.924Z,0.90
2023-08-01T01:32:02.953Z,0.77
2023-08-01T01:34:30.710Z,0.73
2023-08-01T01:36:58.503Z,0.95
2023-08-01T01:39:27.700Z,0.60
2023-08-01T01:41:55.505Z,0.70
2023-08-01T01:44:23.312Z,0.90
2023-08-01T01:46:51.226Z,1.00
2023-08-01T01:49:19.054Z,0.70
2023-08-01T01:51:46.842Z,0.85
2023-08-01T01:54:14.618Z,0.85
2023-08-01T01:56:43.729Z,0.68
2023-08-01T01:59:11.531Z,0.70
2023-08-01T02:01:40.128Z,0.77
2023-08-01T02:04:07.944Z,1.00
2023-08-01T02:06:35.642Z,2.72
2023-08-01T02:09:05.396Z,0.68
2023-08-01T02:11:33.144Z,1.08
2023-08-01T02:14:02.875Z,0.85
2023-08-01T02:16:30.704Z,0.90
2023-08-01T02:18:58.530Z,0.90
2023-08-01T02:21:26.704Z,0.57
2023-08-01T02:23:54.467Z,0.50
2023-08-01T02:26:23.594Z,0.77
2023-08-01T02:28:51.349Z,0.77
2023-08-01T02:31:20.970Z,0.68
2023-08-01T02:33:48.819Z,0.80
2023-08-01T02:36:16.617Z,0.60
2023-08-01T02:38:44.383Z,0.70
2023-08-01T02:41:12.163Z,0.60
2023-08-01T02:43:39.886Z,1.05
2023-08-01T02:46:07.765Z,0.82
2023-08-01T02:48:37.063Z,0.90
2023-08-01T02:51:04.909Z,0.60
2023-08-01T02:53:32.738Z,0.70
2023-08-01T02:56:00.461Z,0.73
2023-08-01T02:58:28.248Z,0.75
2023-08-01T03:00:57.325Z,0.68
2023-08-01T03:03:25.203Z,0.80
2023-08-01T03:05:54.360Z,2.05
2023-08-01T03:08:22.062Z,0.85
2023-08-01T03:10:50.135Z,0.80
2023-08-01T03:13:17.947Z,0.60
2023-08-01T03:15:45.737Z,0.90
2023-08-01T03:18:13.468Z,0.60
2023-08-01T03:20:41.426Z,0.50
2023-08-01T03:23:10.517Z,1.00
2023-08-01T03:25:38.246Z,0.80
2023-08-01T03:28:06.568Z,1.00
2023-08-01T03:30:34.748Z,0.88
2023-08-01T03:33:03.817Z,0.70
2023-08-01T03:35:31.687Z,0.70
2023-08-01T03:37:59.442Z,1.10
2023-08-01T03:40:28.556Z,0.70
2023-08-01T03:42:57.099Z,0.93
2023-08-01T03:45:24.937Z,0.90
2023-08-01T03:47:52.753Z,0.77
2023-08-01T03:50:20.580Z,1.30
2023-08-01T03:52:51.074Z,0.75
2023-08-01T03:55:19.008Z,0.98
2023-08-01T03:57:48.198Z,0.73
2023-08-01T04:00:16.031Z,0.80
2023-08-01T04:02:48.736Z,0.98
2023-08-01T04:05:17.167Z,0.80
2023-08-01T04:07:44.925Z,0.70
2023-08-01T04:10:12.670Z,1.00
2023-08-01T04:12:40.421Z,0.88
2023-08-01T04:15:10.444Z,1.05
2023-08-01T04:17:38.247Z,0.93
2023-08-01T04:20:07.299Z,0.80
2023-08-01T04:22:35.051Z,0.90
2023-08-01T04:25:03.272Z,0.63
2023-08-01T04:27:31.047Z,1.00
2023-08-01T04:29:58.854Z,0.70
2023-08-01T04:32:27.943Z,0.90
2023-08-01T04:34:55.750Z,0.80
2023-08-01T04:37:24.227Z,0.60
2023-08-01T04:39:52.047Z,0.80
2023-08-01T04:42:19.787Z,0.80
2023-08-01T04:44:47.567Z,0.80
2023-08-01T04:47:16.264Z,0.80
2023-08-01T04:49:45.683Z,0.80
2023-08-01T04:52:13.417Z,0.60
2023-08-01T04:54:41.220Z,1.13
2023-08-01T04:57:08.940Z,0.70
2023-08-01T04:59:36.690Z,0.80
2023-08-01T05:02:04.676Z,0.70
2023-08-01T05:04:32.446Z,0.80
2023-08-01T05:07:01.526Z,0.80
2023-08-01T05:09:29.261Z,0.82
2023-08-01T05:11:57.011Z,0.70
2023-08-01T05:14:24.786Z,0.90
2023-08-01T05:16:52.561Z,0.60
2023-08-01T05:19:20.356Z,0.50
2023-08-01T05:21:48.492Z,0.70
2023-08-01T05:24:17.599Z,0.70
2023-08-01T05:26:45.443Z,0.63
2023-08-01T05:29:13.295Z,0.95
2023-08-01T05:31:41.785Z,1.77
2023-08-01T05:34:09.709Z,0.73
2023-08-01T05:36:38.354Z,0.80
2023-08-01T05:39:06.419Z,0.70
2023-08-01T05:41:35.489Z,0.70
2023-08-01T05:44:03.286Z,0.63
2023-08-01T05:46:31.059Z,1.15
2023-08-01T05:48:58.837Z,1.00
2023-08-01T05:51:26.736Z,1.00
2023-08-01T05:53:54.488Z,0.95
2023-08-01T05:56:22.288Z,1.02
2023-08-01T05:58:52.161Z,1.23
2023-08-01T06:01:20.731Z,0.70
2023-08-01T06:03:48.593Z,0.90
2023-08-01T06:06:16.434Z,0.85
2023-08-01T06:08:44.260Z,0.80
2023-08-01T06:11:12.127Z,0.80
2023-08-01T06:13:39.868Z,0.80
2023-08-01T06:16:09.054Z,0.80
2023-08-01T06:18:36.855Z,0.75
2023-08-01T06:21:04.754Z,1.02
2023-08-01T06:23:32.520Z,0.77
2023-08-01T06:26:00.302Z,0.70
2023-08-01T06:28:28.336Z,1.02
2023-08-01T06:30:56.211Z,0.70
2023-08-01T06:33:25.317Z,0.98
2023-08-01T06:35:53.067Z,0.85
2023-08-01T06:38:20.871Z,0.88
2023-08-01T06:40:48.595Z,0.85
2023-08-01T06:43:16.409Z,0.90
2023-08-01T06:45:44.251Z,0.65
2023-08-01T06:48:12.118Z,0.70
2023-08-01T06:50:41.258Z,0.90
2023-08-01T06:53:09.397Z,0.98
2023-08-01T06:55:37.189Z,0.90
2023-08-01T06:58:04.988Z,0.90
2023-08-01T07:00:32.846Z,0.85
2023-08-01T07:03:00.736Z,1.70
2023-08-01T07:05:28.667Z,1.00
2023-08-01T07:07:59.114Z,1.13
2023-08-01T07:10:26.924Z,0.80
2023-08-01T07:12:54.703Z,1.05
2023-08-01T07:15:22.457Z,1.10
2023-08-01T07:17:50.253Z,0.80
2023-08-01T07:20:18.232Z,1.23
2023-08-01T07:22:46.006Z,1.10
2023-08-01T07:25:16.496Z,0.80
2023-08-01T07:27:44.414Z,1.20
2023-08-01T07:30:12.799Z,1.25
2023-08-01T07:32:40.719Z,1.05
2023-08-01T07:35:09.425Z,1.00
2023-08-01T07:37:38.841Z,3.67
2023-08-01T07:40:07.444Z,30.73
2023-08-01T07:42:36.504Z,14.95
2023-08-01T07:45:04.739Z,16.00
2023-08-01T07:47:32.669Z,63.20
2023-08-01T07:50:00.456Z,17.02
2023-08-01T07:52:28.217Z,18.13
2023-08-01T07:54:58.429Z,13.98
2023-08-01T07:57:26.215Z,22.63
2023-08-01T07:59:55.283Z,21.70
2023-08-01T08:02:23.057Z,22.38
2023-08-01T08:04:50.861Z,15.88
2023-08-01T08:07:19.478Z,14.95
2023-08-01T08:09:47.229Z,14.45
2023-08-01T08:12:14.946Z,19.00
2023-08-01T08:14:42.688Z,35.45
2023-08-01T08:17:11.889Z,35.38
2023-08-01T08:19:39.736Z,41.15
2023-08-01T08:22:07.505Z,18.42
2023-08-01T08:24:37.703Z,14.23
2023-08-01T08:27:07.018Z,16.65
2023-08-01T08:29:34.908Z,16.33
2023-08-01T08:32:02.717Z,12.60
2023-08-01T08:34:31.827Z,9.25
2023-08-01T08:36:59.679Z,17.00
2023-08-01T08:39:27.662Z,21.00
2023-08-01T08:41:55.437Z,12.15
2023-08-01T08:44:23.374Z,15.40
2023-08-01T08:46:52.191Z,10.75
2023-08-01T08:49:21.090Z,20.13
2023-08-01T08:51:50.375Z,13.45
2023-08-01T08:54:18.324Z,19.02
2023-08-01T08:56:46.316Z,15.48
2023-08-01T08:59:14.104Z,22.48
2023-08-01T09:01:41.858Z,14.43
2023-08-01T09:04:10.173Z,21.98
2023-08-01T09:06:42.444Z,27.60
2023-08-01T09:09:13.196Z,34.67
2023-08-01T09:11:46.467Z,19.67
2023-08-01T09:14:14.334Z,24.92
2023-08-01T09:16:42.415Z,21.88
2023-08-01T09:19:10.553Z,17.23
2023-08-01T09:21:39.816Z,55.25
2023-08-01T09:24:12.227Z,44.92
2023-08-01T09:26:40.285Z,30.02
2023-08-01T09:29:08.387Z,34.05
2023-08-01T09:31:37.455Z,20.92
2023-08-01T09:34:06.188Z,14.98
2023-08-01T09:36:34.313Z,15.77
2023-08-01T09:39:02.409Z,15.02
2023-08-01T09:41:31.964Z,12.77
2023-08-01T09:44:00.039Z,15.43
2023-08-01T09:46:27.918Z,12.98
2023-08-01T09:48:55.714Z,18.50
2023-08-01T09:51:23.488Z,11.27
2023-08-01T09:53:53.823Z,10.52
2023-08-01T09:56:22.786Z,9.70
2023-08-01T09:58:52.128Z,9.15
2023-08-01T10:01:21.030Z,11.70
2023-08-01T10:03:49.522Z,10.70
2023-08-01T10:06:20.253Z,7.00
2023-08-01T10:08:48.139Z,10.25
2023-08-01T10:11:16.768Z,9.80
2023-08-01T10:13:44.804Z,7.63
2023-08-01T10:16:15.983Z,8.75
2023-08-01T10:18:44.256Z,8.77
2023-08-01T10:21:13.530Z,8.38
2023-08-01T10:23:41.787Z,6.68
2023-08-01T10:26:09.790Z,3.72
2023-08-01T10:28:38.425Z,5.43
2023-08-01T10:31:10.844Z,6.70
2023-08-01T10:33:40.345Z,5.30
2023-08-01T10:36:15.567Z,4.10
2023-08-01T10:38:48.502Z,6.93
2023-08-01T10:41:23.701Z,4.35
2023-08-01T10:43:51.461Z,4.55
2023-08-01T10:46:19.422Z,6.47
2023-08-01T10:48:52.783Z,6.68
2023-08-01T10:51:20.702Z,7.07
2023-08-01T10:53:48.934Z,4.88
2023-08-01T10:56:20.439Z,8.43
2023-08-01T10:58:49.009Z,4.93
2023-08-01T11:01:16.852Z,4.68
2023-08-01T11:03:45.557Z,3.97
2023-08-01T11:06:14.890Z,5.15
2023-08-01T11:08:44.655Z,3.67
2023-08-01T11:11:15.227Z,5.32
2023-08-01T11:13:43.732Z,4.72
2023-08-01T11:16:13.383Z,4.93
2023-08-01T11:18:44.501Z,5.72
2023-08-01T11:21:13.589Z,4.20
2023-08-01T11:23:41.418Z,4.50
2023-08-01T11:26:09.676Z,3.30
2023-08-01T11:28:37.569Z,3.83
2023-08-01T11:31:12.831Z,3.33
2023-08-01T11:33:40.707Z,2.88
2023-08-01T11:36:08.573Z,4.35
2023-08-01T11:38:37.658Z,4.30
2023-08-01T11:41:05.678Z,4.75
2023-08-01T11:43:40.371Z,3.35
2023-08-01T11:46:08.170Z,4.88
2023-08-01T11:48:36.086Z,3.88
2023-08-01T11:51:04.000Z,4.15
2023-08-01T11:53:35.020Z,3.58
2023-08-01T11:56:04.271Z,3.70
2023-08-01T11:58:32.538Z,5.35
2023-08-01T12:01:07.076Z,2.97
2023-08-01T12:03:43.466Z,7.25
2023-08-01T12:06:12.628Z,3.35
2023-08-01T12:08:40.917Z,2.40
2023-08-01T12:11:19.664Z,3.95
2023-08-01T12:13:47.432Z,2.95
2023-08-01T12:16:16.527Z,2.78
2023-08-01T12:18:59.587Z,2.95
2023-08-01T12:21:28.941Z,4.65
2023-08-01T12:23:56.724Z,3.80
2023-08-01T12:26:26.011Z,2.97
2023-08-01T12:28:53.801Z,5.03
2023-08-01T12:31:22.364Z,3.80
2023-08-01T12:33:50.294Z,2.40
2023-08-01T12:36:18.047Z,3.88
2023-08-01T12:38:45.957Z,3.50
2023-08-01T12:41:13.706Z,3.20
2023-08-01T12:43:43.010Z,3.38
2023-08-01T12:46:10.744Z,3.45
2023-08-01T12:48:38.536Z,3.65
2023-08-01T12:51:06.327Z,1.90
2023-08-01T12:53:34.116Z,2.58
2023-08-01T12:56:07.893Z,2.25
2023-08-01T12:58:36.444Z,2.05
2023-08-01T13:01:05.984Z,2.13
2023-08-01T13:03:33.882Z,2.22
2023-08-01T13:06:01.750Z,2.63
2023-08-01T13:08:30.210Z,2.72
2023-08-01T13:11:00.570Z,2.75
2023-08-01T13:13:28.550Z,2.83
2023-08-01T13:15:58.207Z,1.92
2023-08-01T13:18:27.356Z,2.47
2023-08-01T13:20:55.152Z,2.08
2023-08-01T13:23:22.902Z,2.25
2023-08-01T13:25:50.979Z,2.13
2023-08-01T13:28:18.735Z,2.60
2023-08-01T13:30:46.521Z,2.72
2023-08-01T13:33:14.331Z,3.47
2023-08-01T13:35:43.507Z,3.20
2023-08-01T13:38:11.261Z,2.97
2023-08-01T13:40:39.025Z,2.75
2023-08-01T13:43:06.933Z,3.00
2023-08-01T13:45:35.584Z,2.45
2023-08-01T13:48:03.401Z,2.92
2023-08-01T13:50:31.176Z,3.08
2023-08-01T13:53:00.303Z,2.88
2023-08-01T13:55:28.062Z,3.65
2023-08-01T13:57:55.828Z,3.20
2023-08-01T14:00:23.584Z,3.05
2023-08-01T14:02:53.417Z,3.22
2023-08-01T14:05:21.319Z,3.10
2023-08-01T14:07:49.138Z,3.55
2023-08-01T14:10:18.553Z,3.30
2023-08-01T14:12:46.323Z,3.78
2023-08-01T14:15:14.150Z,3.35
2023-08-01T14:17:41.940Z,3.30
2023-08-01T14:20:10.652Z,3.53
2023-08-01T14:22:38.432Z,3.38
2023-08-01T14:25:07.706Z,3.55
2023-08-01T14:27:36.809Z,3.25
2023-08-01T14:30:06.751Z,3.60
2023-08-01T14:32:34.555Z,4.20
2023-08-01T14:35:02.363Z,4.53
2023-08-01T14:37:30.836Z,4.05
2023-08-01T14:39:59.068Z,4.40
2023-08-01T14:42:26.847Z,4.40
2023-08-01T14:44:56.153Z,4.55
2023-08-01T14:47:23.970Z,4.13
2023-08-01T14:49:51.725Z,4.25
2023-08-01T14:52:25.043Z,4.00
2023-08-01T14:54:53.568Z,4.10
2023-08-01T14:57:21.466Z,4.63
2023-08-01T14:59:49.290Z,3.90
2023-08-01T15:02:18.385Z,3.90
2023-08-01T15:04:46.128Z,4.03
2023-08-01T15:07:13.986Z,3.30
2023-08-01T15:09:44.373Z,3.80
2023-08-01T15:12:12.236Z,3.63
2023-08-01T15:14:40.358Z,3.65
2023-08-01T15:17:08.917Z,3.60
2023-08-01T15:19:40.668Z,3.15
2023-08-01T15:22:08.698Z,3.40
2023-08-01T15:24:36.432Z,2.92
2023-08-01T15:27:04.421Z,3.10
2023-08-01T15:29:32.195Z,3.15
2023-08-01T15:31:59.979Z,2.50
2023-08-01T15:34:27.843Z,2.67
2023-08-01T15:36:56.925Z,2.35
2023-08-01T15:39:24.965Z,2.45
2023-08-01T15:41:52.743Z,3.00
2023-08-01T15:44:20.558Z,2.75
2023-08-01T15:46:48.663Z,2.42
2023-08-01T15:49:16.386Z,2.08
2023-08-01T15:51:44.146Z,2.22
2023-08-01T15:54:13.573Z,2.17
2023-08-01T15:56:42.988Z,1.92
2023-08-01T15:59:11.010Z,2.10
2023-08-01T16:01:38.945Z,2.20
2023-08-01T16:04:06.769Z,2.13
2023-08-01T16:06:34.515Z,2.50
2023-08-01T16:09:02.296Z,1.80
2023-08-01T16:11:31.376Z,1.85
2023-08-01T16:14:00.446Z,1.65
2023-08-01T16:16:28.433Z,1.52
2023-08-01T16:18:56.192Z,2.20
2023-08-01T16:21:24.000Z,1.95
2023-08-01T16:23:51.791Z,2.03
2023-08-01T16:26:19.578Z,1.85
2023-08-01T16:28:48.709Z,1.30
2023-08-01T16:31:16.434Z,1.80
2023-08-01T16:33:44.396Z,1.30
2023-08-01T16:36:12.285Z,1.25
2023-08-01T16:38:40.035Z,1.30
2023-08-01T16:41:08.333Z,1.40
2023-08-01T16:43:36.127Z,0.93
2023-08-01T16:46:05.284Z,1.73
2023-08-01T16:48:33.080Z,1.30
2023-08-01T16:51:00.866Z,1.10
2023-08-01T16:53:28.672Z,1.20
2023-08-01T16:55:57.617Z,1.45
2023-08-01T16:58:25.408Z,1.65
2023-08-01T17:00:53.191Z,1.75
2023-08-01T17:03:22.326Z,1.63
2023-08-01T17:05:50.084Z,1.30
2023-08-01T17:08:17.963Z,1.60
2023-08-01T17:10:45.737Z,1.52
2023-08-01T17:13:13.898Z,0.90
2023-08-01T17:15:41.766Z,1.35
2023-08-01T17:18:09.633Z,1.85
2023-08-01T17:20:42.206Z,1.42
2023-08-01T17:23:09.957Z,1.00
2023-08-01T17:25:37.726Z,1.30
2023-08-01T17:28:05.685Z,2.03
2023-08-01T17:30:33.820Z,1.90
2023-08-01T17:33:01.882Z,1.10
2023-08-01T17:35:29.826Z,1.95
2023-08-01T17:37:58.911Z,0.95
2023-08-01T17:40:27.421Z,1.27
2023-08-01T17:42:56.335Z,1.67
2023-08-01T17:45:24.110Z,1.27
2023-08-01T17:47:54.353Z,1.70
2023-08-01T17:50:24.830Z,1.20
2023-08-01T17:52:52.557Z,1.02
2023-08-01T17:55:21.620Z,1.33
2023-08-01T17:57:49.460Z,1.85
2023-08-01T18:00:19.040Z,1.52
2023-08-01T18:02:46.931Z,0.70
2023-08-01T18:05:14.843Z,1.88
2023-08-01T18:07:42.617Z,1.50
2023-08-01T18:10:11.682Z,1.52
2023-08-01T18:12:40.744Z,2.35
2023-08-01T18:15:09.126Z,1.20
2023-08-01T18:17:36.898Z,1.17
2023-08-01T18:20:05.338Z,1.60
2023-08-01T18:22:33.180Z,1.10
2023-08-01T18:25:01.049Z,1.48
2023-08-01T18:27:28.844Z,1.30
2023-08-01T18:29:57.942Z,1.10
2023-08-01T18:32:25.771Z,1.23
2023-08-01T18:34:59.779Z,1.58
2023-08-01T18:37:27.618Z,1.48
2023-08-01T18:39:55.929Z,1.65
2023-08-01T18:42:23.701Z,1.67
2023-08-01T18:44:52.123Z,1.00
2023-08-01T18:47:21.200Z,1.50
2023-08-01T18:49:50.668Z,1.15
2023-08-01T18:52:18.615Z,2.63
2023-08-01T18:54:46.368Z,1.73
2023-08-01T18:57:14.141Z,1.23
2023-08-01T18:59:41.873Z,1.40
2023-08-01T19:02:09.638Z,1.52
2023-08-01T19:04:39.041Z,0.93
2023-08-01T19:07:08.049Z,1.65
2023-08-01T19:09:35.828Z,1.35
2023-08-01T19:12:05.664Z,1.52
2023-08-01T19:14:33.431Z,1.58
2023-08-01T19:17:01.190Z,1.17
2023-08-01T19:19:28.944Z,1.20
2023-08-01T19:21:58.007Z,1.67
2023-08-01T19:24:25.733Z,1.52
2023-08-01T19:26:53.467Z,2.63
2023-08-01T19:29:21.212Z,0.82
2023-08-01T19:31:49.021Z,2.17
2023-08-01T19:34:16.807Z,1.10
2023-08-01T19:36:46.071Z,0.98
2023-08-01T19:39:15.360Z,1.38
2023-08-01T19:41:43.128Z,1.65
2023-08-01T19:44:10.883Z,1.20
2023-08-01T19:46:38.682Z,1.55
2023-08-01T19:49:06.459Z,1.63
2023-08-01T19:51:34.245Z,1.48
2023-08-01T19:54:01.997Z,1.42
2023-08-01T19:56:31.230Z,1.50
2023-08-01T19:58:58.975Z,1.27
2023-08-01T20:01:27.176Z,1.08
2023-08-01T20:03:56.119Z,1.45
2023-08-01T20:06:25.962Z,1.13
2023-08-01T20:08:53.747Z,2.67
2023-08-01T20:11:21.495Z,1.08
2023-08-01T20:13:50.559Z,2.22
2023-08-01T20:16:20.421Z,1.70
2023-08-01T20:18:48.183Z,1.08
2023-08-01T20:21:16.070Z,2.28
2023-08-01T20:23:43.802Z,1.05
2023-08-01T20:26:11.576Z,0.90
2023-08-01T20:28:39.301Z,1.73
2023-08-01T20:31:08.909Z,0.93
2023-08-01T20:33:37.877Z,2.10
2023-08-01T20:36:06.090Z,1.80
2023-08-01T20:38:33.797Z,2.00
2023-08-01T20:41:01.581Z,1.02
2023-08-01T20:43:29.473Z,1.05
2023-08-01T20:45:57.571Z,1.25
2023-08-01T20:48:26.690Z,1.38
2023-08-01T20:50:54.746Z,1.50
2023-08-01T20:53:22.514Z,1.35
2023-08-01T20:55:50.230Z,2.13
2023-08-01T20:58:17.984Z,2.95
2023-08-01T21:00:46.079Z,1.88
2023-08-01T21:03:13.797Z,1.35
2023-08-01T21:05:42.890Z,2.13
2023-08-01T21:08:10.629Z,1.20
2023-08-01T21:10:38.362Z,1.77
2023-08-01T21:13:06.120Z,1.00
2023-08-01T21:15:33.915Z,1.38
2023-08-01T21:18:01.787Z,2.03
2023-08-01T21:20:29.566Z,0.80
2023-08-01T21:22:58.700Z,1.00
2023-08-01T21:25:26.505Z,2.05
2023-08-01T21:27:54.256Z,1.45
2023-08-01T21:30:22.139Z,1.25
2023-08-01T21:32:49.949Z,1.15
2023-08-01T21:35:18.513Z,2.28
2023-08-01T21:37:47.549Z,1.48
2023-08-01T21:40:16.632Z,1.08
2023-08-01T21:42:44.397Z,1.90
2023-08-01T21:45:12.354Z,1.58
2023-08-01T21:47:40.942Z,1.88
2023-08-01T21:50:09.595Z,0.80
2023-08-01T21:52:37.352Z,1.10
2023-08-01T21:55:05.867Z,1.67
2023-08-01T21:57:34.953Z,1.25
2023-08-01T22:00:02.750Z,1.42
2023-08-01T22:02:32.889Z,1.40
2023-08-01T22:05:00.806Z,0.98
2023-08-01T22:07:28.575Z,1.90
2023-08-01T22:09:56.454Z,1.27
2023-08-01T22:12:24.151Z,1.15
2023-08-01T22:14:53.286Z,0.80
2023-08-01T22:17:21.056Z,1.00
2023-08-01T22:19:48.800Z,1.27
2023-08-01T22:22:18.076Z,1.65
2023-08-01T22:24:45.894Z,1.42
2023-08-01T22:27:13.666Z,1.20
2023-08-01T22:29:41.886Z,1.63
2023-08-01T22:32:11.317Z,1.92
2023-08-01T22:34:39.090Z,1.45
2023-08-01T22:37:07.679Z,1.35
2023-08-01T22:39:36.568Z,0.98
2023-08-01T22:42:04.420Z,1.13
2023-08-01T22:44:33.839Z,0.82
2023-08-01T22:47:01.628Z,1.90
2023-08-01T22:49:31.035Z,1.15
2023-08-01T22:51:58.766Z,1.33
2023-08-01T22:54:26.983Z,2.72
2023-08-01T22:56:54.800Z,2.97
2023-08-01T22:59:22.553Z,1.27
2023-08-01T23:01:50.577Z,1.15
2023-08-01T23:04:18.349Z,2.92
2023-08-01T23:06:47.399Z,1.23
2023-08-01T23:09:15.201Z,1.60
2023-08-01T23:11:42.926Z,2.40
2023-08-01T23:14:10.675Z,1.63
2023-08-01T23:16:38.427Z,1.00
2023-08-01T23:19:06.199Z,1.98
2023-08-01T23:21:34.065Z,1.48
2023-08-01T23:24:04.268Z,1.73
2023-08-01T23:26:32.195Z,2.58
2023-08-01T23:28:59.969Z,1.98
2023-08-01T23:31:27.749Z,1.17
2023-08-01T23:33:55.561Z,2.35
2023-08-01T23:36:23.289Z,1.73
2023-08-01T23:38:51.098Z,1.98
2023-08-01T23:41:20.151Z,1.40
2023-08-01T23:43:47.926Z,2.30
2023-08-01T23:46:15.737Z,2.72
2023-08-01T23:48:43.601Z,1.17
2023-08-01T23:51:17.378Z,2.22
2023-08-01T23:53:45.141Z,2.47
2023-08-01T23:56:12.862Z,1.40
2023-08-01T23:58:42.392Z,2.20
